sensor_id;sensor_type;location;lat;lon;timestamp;P1;durP1;ratioP1;P2;durP2;ratioP2
54517;SDS011;40423;53.176;6.002;2022-10-31T00:01:40;19.20;;;11.90;;
54517;SDS011;40423;53.176;6.002;2022-10-31T00:04:06;21.95;;;12.73;;
54517;SDS011;40423;53.176;6.002;2022-10-31T00:06:31;16.73;;;11.35;;
54517;SDS011;40423;53.176;6.002;2022-10-31T00:09:02;17.52;;;11.35;;
54517;SDS011;40423;53.176;6.002;2022-10-31T00:11:29;20.50;;;11.68;;
54517;SDS011;40423;53.176;6.002;2022-10-31T00:13:54;17.30;;;11.68;;
54517;SDS011;40423;53.176;6.002;2022-10-31T00:16:25;20.00;;;12.15;;
54517;SDS011;40423;53.176;6.002;2022-10-31T00:18:52;17.17;;;11.90;;
54517;SDS011;40423;53.176;6.002;2022-10-31T00:21:20;20.08;;;11.68;;
54517;SDS011;40423;53.176;6.002;2022-10-31T00:23:46;27.88;;;14.25;;
54517;SDS011;40423;53.176;6.002;2022-10-31T00:26:13;20.88;;;13.60;;
54517;SDS011;40423;53.176;6.002;2022-10-31T00:28:39;17.60;;;13.02;;
54517;SDS011;40423;53.176;6.002;2022-10-31T00:31:06;21.73;;;13.07;;
54517;SDS011;40423;53.176;6.002;2022-10-31T00:33:34;22.70;;;14.13;;
54517;SDS011;40423;53.176;6.002;2022-10-31T00:36:01;18.17;;;12.23;;
54517;SDS011;40423;53.176;6.002;2022-10-31T00:38:28;22.75;;;12.68;;
54517;SDS011;40423;53.176;6.002;2022-10-31T00:40:54;24.50;;;14.32;;
54517;SDS011;40423;53.176;6.002;2022-10-31T00:43:19;21.27;;;13.02;;
54517;SDS011;40423;53.176;6.002;2022-10-31T00:45:45;25.70;;;13.65;;
54517;SDS011;40423;53.176;6.002;2022-10-31T00:48:11;21.15;;;13.95;;
54517;SDS011;40423;53.176;6.002;2022-10-31T00:50:37;21.70;;;13.65;;
54517;SDS011;40423;53.176;6.002;2022-10-31T00:53:03;22.88;;;13.88;;
54517;SDS011;40423;53.176;6.002;2022-10-31T00:55:29;25.30;;;14.85;;
54517;SDS011;40423;53.176;6.002;2022-10-31T00:57:55;22.33;;;14.05;;
54517;SDS011;40423;53.176;6.002;2022-10-31T01:00:21;23.00;;;14.45;;
54517;SDS011;40423;53.176;6.002;2022-10-31T01:02:46;18.17;;;11.57;;
54517;SDS011;40423;53.176;6.002;2022-10-31T01:05:12;20.60;;;13.07;;
54517;SDS011;40423;53.176;6.002;2022-10-31T01:07:39;21.08;;;13.90;;
54517;SDS011;40423;53.176;6.002;2022-10-31T01:10:06;17.98;;;12.65;;
54517;SDS011;40423;53.176;6.002;2022-10-31T01:12:42;22.00;;;13.63;;
54517;SDS011;40423;53.176;6.002;2022-10-31T01:15:10;20.35;;;12.65;;
54517;SDS011;40423;53.176;6.002;2022-10-31T01:17:37;22.90;;;14.32;;
54517;SDS011;40423;53.176;6.002;2022-10-31T01:20:04;21.77;;;13.57;;
54517;SDS011;40423;53.176;6.002;2022-10-31T01:22:31;16.33;;;11.88;;
54517;SDS011;40423;53.176;6.002;2022-10-31T01:24:57;21.42;;;12.60;;
54517;SDS011;40423;53.176;6.002;2022-10-31T01:27:23;16.90;;;12.32;;
54517;SDS011;40423;53.176;6.002;2022-10-31T01:29:48;22.33;;;13.93;;
54517;SDS011;40423;53.176;6.002;2022-10-31T01:32:14;22.70;;;13.65;;
54517;SDS011;40423;53.176;6.002;2022-10-31T01:34:40;20.08;;;13.15;;
54517;SDS011;40423;53.176;6.002;2022-10-31T01:37:05;26.58;;;15.10;;
54517;SDS011;40423;53.176;6.002;2022-10-31T01:39:31;16.98;;;12.85;;
54517;SDS011;40423;53.176;6.002;2022-10-31T01:41:57;15.00;;;10.93;;
54517;SDS011;40423;53.176;6.002;2022-10-31T01:49:19;19.10;;;12.68;;
54517;SDS011;40423;53.176;6.002;2022-10-31T01:52:42;19.75;;;12.52;;
54517;SDS011;40423;53.176;6.002;2022-10-31T01:54:55;22.45;;;12.82;;
54517;SDS011;40423;53.176;6.002;2022-10-31T01:57:22;22.67;;;14.13;;
54517;SDS011;40423;53.176;6.002;2022-10-31T01:59:51;18.63;;;13.55;;
54517;SDS011;40423;53.176;6.002;2022-10-31T02:02:22;24.92;;;16.00;;
54517;SDS011;40423;53.176;6.002;2022-10-31T02:04:49;25.52;;;16.05;;
54517;SDS011;40423;53.176;6.002;2022-10-31T02:07:18;16.48;;;12.45;;
54517;SDS011;40423;53.176;6.002;2022-10-31T02:09:48;22.00;;;15.32;;
54517;SDS011;40423;53.176;6.002;2022-10-31T02:12:16;20.73;;;13.82;;
54517;SDS011;40423;53.176;6.002;2022-10-31T02:14:43;23.38;;;14.55;;
54517;SDS011;40423;53.176;6.002;2022-10-31T02:17:09;22.27;;;14.93;;
54517;SDS011;40423;53.176;6.002;2022-10-31T02:19:47;19.05;;;13.20;;
54517;SDS011;40423;53.176;6.002;2022-10-31T02:22:36;17.65;;;13.35;;
54517;SDS011;40423;53.176;6.002;2022-10-31T02:33:24;23.55;;;16.45;;
54517;SDS011;40423;53.176;6.002;2022-10-31T02:36:11;25.10;;;15.60;;
54517;SDS011;40423;53.176;6.002;2022-10-31T02:41:18;23.58;;;16.10;;
54517;SDS011;40423;53.176;6.002;2022-10-31T02:46:42;24.17;;;15.75;;
54517;SDS011;40423;53.176;6.002;2022-10-31T02:52:17;26.35;;;17.20;;
54517;SDS011;40423;53.176;6.002;2022-10-31T02:54:49;21.42;;;14.57;;
54517;SDS011;40423;53.176;6.002;2022-10-31T02:57:15;24.52;;;16.10;;
54517;SDS011;40423;53.176;6.002;2022-10-31T02:59:49;20.85;;;15.05;;
54517;SDS011;40423;53.176;6.002;2022-10-31T03:02:28;23.95;;;15.75;;
54517;SDS011;40423;53.176;6.002;2022-10-31T03:07:47;26.35;;;16.40;;
54517;SDS011;40423;53.176;6.002;2022-10-31T03:18:34;24.33;;;17.17;;
54517;SDS011;40423;53.176;6.002;2022-10-31T03:24:09;22.67;;;14.55;;
54517;SDS011;40423;53.176;6.002;2022-10-31T03:26:37;21.90;;;14.23;;
54517;SDS011;40423;53.176;6.002;2022-10-31T03:29:05;20.95;;;14.05;;
54517;SDS011;40423;53.176;6.002;2022-10-31T03:31:37;24.05;;;15.32;;
54517;SDS011;40423;53.176;6.002;2022-10-31T03:34:08;19.42;;;14.85;;
54517;SDS011;40423;53.176;6.002;2022-10-31T03:36:37;25.48;;;16.20;;
54517;SDS011;40423;53.176;6.002;2022-10-31T03:39:05;23.40;;;14.05;;
54517;SDS011;40423;53.176;6.002;2022-10-31T03:41:36;16.65;;;12.43;;
54517;SDS011;40423;53.176;6.002;2022-10-31T03:44:08;29.08;;;15.50;;
54517;SDS011;40423;53.176;6.002;2022-10-31T03:46:38;21.95;;;13.95;;
54517;SDS011;40423;53.176;6.002;2022-10-31T03:49:06;19.63;;;13.15;;
54517;SDS011;40423;53.176;6.002;2022-10-31T03:57:06;23.63;;;14.90;;
54517;SDS011;40423;53.176;6.002;2022-10-31T03:59:44;18.48;;;12.07;;
54517;SDS011;40423;53.176;6.002;2022-10-31T04:02:13;21.42;;;14.52;;
54517;SDS011;40423;53.176;6.002;2022-10-31T04:04:42;25.27;;;14.77;;
54517;SDS011;40423;53.176;6.002;2022-10-31T04:07:09;21.73;;;14.52;;
54517;SDS011;40423;53.176;6.002;2022-10-31T04:09:38;24.92;;;15.27;;
54517;SDS011;40423;53.176;6.002;2022-10-31T04:12:07;21.38;;;13.73;;
54517;SDS011;40423;53.176;6.002;2022-10-31T04:14:36;25.58;;;14.32;;
54517;SDS011;40423;53.176;6.002;2022-10-31T04:17:05;20.90;;;13.73;;
54517;SDS011;40423;53.176;6.002;2022-10-31T04:19:34;22.58;;;13.93;;
54517;SDS011;40423;53.176;6.002;2022-10-31T04:22:02;20.77;;;14.43;;
54517;SDS011;40423;53.176;6.002;2022-10-31T04:24:28;21.95;;;14.82;;
54517;SDS011;40423;53.176;6.002;2022-10-31T04:26:54;22.80;;;14.38;;
54517;SDS011;40423;53.176;6.002;2022-10-31T04:29:20;20.95;;;14.32;;
54517;SDS011;40423;53.176;6.002;2022-10-31T04:31:45;19.25;;;12.73;;
54517;SDS011;40423;53.176;6.002;2022-10-31T04:34:11;21.20;;;14.10;;
54517;SDS011;40423;53.176;6.002;2022-10-31T04:36:37;20.40;;;13.05;;
54517;SDS011;40423;53.176;6.002;2022-10-31T04:39:02;19.15;;;14.30;;
54517;SDS011;40423;53.176;6.002;2022-10-31T04:41:28;16.42;;;11.90;;
54517;SDS011;40423;53.176;6.002;2022-10-31T04:43:54;21.65;;;15.15;;
54517;SDS011;40423;53.176;6.002;2022-10-31T04:46:19;25.20;;;15.50;;
54517;SDS011;40423;53.176;6.002;2022-10-31T04:48:45;16.35;;;12.18;;
54517;SDS011;40423;53.176;6.002;2022-10-31T04:53:42;18.02;;;13.02;;
54517;SDS011;40423;53.176;6.002;2022-10-31T04:56:07;22.67;;;15.57;;
54517;SDS011;40423;53.176;6.002;2022-10-31T04:58:33;22.52;;;17.17;;
54517;SDS011;40423;53.176;6.002;2022-10-31T05:00:59;22.13;;;14.85;;
54517;SDS011;40423;53.176;6.002;2022-10-31T05:03:24;20.52;;;14.00;;
54517;SDS011;40423;53.176;6.002;2022-10-31T05:05:50;20.05;;;15.13;;
54517;SDS011;40423;53.176;6.002;2022-10-31T05:08:16;22.63;;;13.80;;
54517;SDS011;40423;53.176;6.002;2022-10-31T05:10:42;27.83;;;15.38;;
54517;SDS011;40423;53.176;6.002;2022-10-31T05:13:08;23.70;;;14.68;;
54517;SDS011;40423;53.176;6.002;2022-10-31T05:15:34;27.55;;;18.00;;
54517;SDS011;40423;53.176;6.002;2022-10-31T05:18:00;23.40;;;17.27;;
54517;SDS011;40423;53.176;6.002;2022-10-31T05:20:27;24.17;;;16.50;;
54517;SDS011;40423;53.176;6.002;2022-10-31T05:22:54;26.02;;;17.23;;
54517;SDS011;40423;53.176;6.002;2022-10-31T05:25:22;17.70;;;14.77;;
54517;SDS011;40423;53.176;6.002;2022-10-31T05:27:50;25.40;;;17.65;;
54517;SDS011;40423;53.176;6.002;2022-10-31T05:30:17;23.00;;;15.35;;
54517;SDS011;40423;53.176;6.002;2022-10-31T05:32:49;21.05;;;15.60;;
54517;SDS011;40423;53.176;6.002;2022-10-31T05:35:17;21.90;;;15.75;;
54517;SDS011;40423;53.176;6.002;2022-10-31T05:37:47;26.65;;;16.98;;
54517;SDS011;40423;53.176;6.002;2022-10-31T05:40:14;21.33;;;15.60;;
54517;SDS011;40423;53.176;6.002;2022-10-31T05:42:41;23.27;;;16.35;;
54517;SDS011;40423;53.176;6.002;2022-10-31T05:45:14;22.05;;;17.75;;
54517;SDS011;40423;53.176;6.002;2022-10-31T05:47:41;23.30;;;16.08;;
54517;SDS011;40423;53.176;6.002;2022-10-31T05:50:08;18.35;;;13.63;;
54517;SDS011;40423;53.176;6.002;2022-10-31T05:52:34;19.30;;;12.38;;
54517;SDS011;40423;53.176;6.002;2022-10-31T05:55:00;22.58;;;16.33;;
54517;SDS011;40423;53.176;6.002;2022-10-31T05:57:26;24.33;;;17.20;;
54517;SDS011;40423;53.176;6.002;2022-10-31T05:59:53;18.17;;;13.55;;
54517;SDS011;40423;53.176;6.002;2022-10-31T06:02:19;16.30;;;12.32;;
54517;SDS011;40423;53.176;6.002;2022-10-31T06:04:45;19.63;;;14.43;;
54517;SDS011;40423;53.176;6.002;2022-10-31T06:07:11;21.00;;;14.30;;
54517;SDS011;40423;53.176;6.002;2022-10-31T06:09:37;22.15;;;15.10;;
54517;SDS011;40423;53.176;6.002;2022-10-31T06:12:03;16.27;;;12.65;;
54517;SDS011;40423;53.176;6.002;2022-10-31T06:14:28;21.75;;;15.10;;
54517;SDS011;40423;53.176;6.002;2022-10-31T06:16:54;15.50;;;12.00;;
54517;SDS011;40423;53.176;6.002;2022-10-31T06:19:21;21.48;;;16.75;;
54517;SDS011;40423;53.176;6.002;2022-10-31T06:21:46;19.10;;;15.45;;
54517;SDS011;40423;53.176;6.002;2022-10-31T06:24:12;22.52;;;15.93;;
54517;SDS011;40423;53.176;6.002;2022-10-31T06:26:39;27.33;;;18.13;;
54517;SDS011;40423;53.176;6.002;2022-10-31T06:29:05;19.15;;;13.73;;
54517;SDS011;40423;53.176;6.002;2022-10-31T06:31:31;19.58;;;13.05;;
54517;SDS011;40423;53.176;6.002;2022-10-31T06:33:57;23.08;;;17.55;;
54517;SDS011;40423;53.176;6.002;2022-10-31T06:36:23;17.42;;;13.75;;
54517;SDS011;40423;53.176;6.002;2022-10-31T06:38:48;19.17;;;14.20;;
54517;SDS011;40423;53.176;6.002;2022-10-31T06:41:14;25.80;;;16.42;;
54517;SDS011;40423;53.176;6.002;2022-10-31T06:43:40;24.83;;;15.77;;
54517;SDS011;40423;53.176;6.002;2022-10-31T06:46:05;16.27;;;12.80;;
54517;SDS011;40423;53.176;6.002;2022-10-31T06:48:31;21.88;;;14.40;;
54517;SDS011;40423;53.176;6.002;2022-10-31T06:50:58;24.67;;;15.23;;
54517;SDS011;40423;53.176;6.002;2022-10-31T06:53:25;20.63;;;15.80;;
54517;SDS011;40423;53.176;6.002;2022-10-31T06:55:51;21.40;;;14.80;;
54517;SDS011;40423;53.176;6.002;2022-10-31T06:58:16;23.67;;;17.00;;
54517;SDS011;40423;53.176;6.002;2022-10-31T07:00:42;18.48;;;15.07;;
54517;SDS011;40423;53.176;6.002;2022-10-31T07:03:10;22.85;;;17.33;;
54517;SDS011;40423;53.176;6.002;2022-10-31T07:05:37;19.77;;;15.60;;
54517;SDS011;40423;53.176;6.002;2022-10-31T07:08:03;27.17;;;19.17;;
54517;SDS011;40423;53.176;6.002;2022-10-31T07:10:32;22.60;;;15.48;;
54517;SDS011;40423;53.176;6.002;2022-10-31T07:12:59;24.45;;;15.75;;
54517;SDS011;40423;53.176;6.002;2022-10-31T07:15:32;26.48;;;17.95;;
54517;SDS011;40423;53.176;6.002;2022-10-31T07:18:00;22.77;;;16.88;;
54517;SDS011;40423;53.176;6.002;2022-10-31T07:20:29;36.00;;;23.60;;
54517;SDS011;40423;53.176;6.002;2022-10-31T07:22:55;34.83;;;22.67;;
54517;SDS011;40423;53.176;6.002;2022-10-31T07:25:21;27.38;;;19.20;;
54517;SDS011;40423;53.176;6.002;2022-10-31T07:27:47;21.50;;;16.00;;
54517;SDS011;40423;53.176;6.002;2022-10-31T07:30:12;22.33;;;16.17;;
54517;SDS011;40423;53.176;6.002;2022-10-31T07:32:42;22.60;;;16.25;;
54517;SDS011;40423;53.176;6.002;2022-10-31T07:35:13;22.55;;;18.10;;
54517;SDS011;40423;53.176;6.002;2022-10-31T07:37:40;29.42;;;19.65;;
54517;SDS011;40423;53.176;6.002;2022-10-31T07:40:07;27.38;;;18.70;;
54517;SDS011;40423;53.176;6.002;2022-10-31T07:42:37;20.25;;;14.80;;
54517;SDS011;40423;53.176;6.002;2022-10-31T07:45:08;27.52;;;18.83;;
54517;SDS011;40423;53.176;6.002;2022-10-31T07:47:41;26.30;;;18.40;;
54517;SDS011;40423;53.176;6.002;2022-10-31T07:52:35;21.80;;;15.23;;
54517;SDS011;40423;53.176;6.002;2022-10-31T07:55:01;20.45;;;15.35;;
54517;SDS011;40423;53.176;6.002;2022-10-31T07:57:28;27.27;;;19.00;;
54517;SDS011;40423;53.176;6.002;2022-10-31T07:59:53;26.27;;;19.13;;
54517;SDS011;40423;53.176;6.002;2022-10-31T08:02:19;22.58;;;18.55;;
54517;SDS011;40423;53.176;6.002;2022-10-31T08:04:45;24.02;;;17.30;;
54517;SDS011;40423;53.176;6.002;2022-10-31T08:07:10;25.17;;;19.23;;
54517;SDS011;40423;53.176;6.002;2022-10-31T08:09:36;25.17;;;18.60;;
54517;SDS011;40423;53.176;6.002;2022-10-31T08:12:02;24.63;;;19.92;;
54517;SDS011;40423;53.176;6.002;2022-10-31T08:14:28;27.15;;;19.60;;
54517;SDS011;40423;53.176;6.002;2022-10-31T08:16:53;26.17;;;17.70;;
54517;SDS011;40423;53.176;6.002;2022-10-31T08:19:19;25.52;;;17.60;;
54517;SDS011;40423;53.176;6.002;2022-10-31T08:21:45;25.67;;;17.92;;
54517;SDS011;40423;53.176;6.002;2022-10-31T08:24:11;25.73;;;19.38;;
54517;SDS011;40423;53.176;6.002;2022-10-31T08:26:37;24.70;;;18.13;;
54517;SDS011;40423;53.176;6.002;2022-10-31T08:29:03;25.90;;;18.08;;
54517;SDS011;40423;53.176;6.002;2022-10-31T08:31:29;23.83;;;17.63;;
54517;SDS011;40423;53.176;6.002;2022-10-31T08:33:55;25.85;;;17.70;;
54517;SDS011;40423;53.176;6.002;2022-10-31T08:36:21;22.35;;;16.90;;
54517;SDS011;40423;53.176;6.002;2022-10-31T08:38:47;22.15;;;17.45;;
54517;SDS011;40423;53.176;6.002;2022-10-31T08:41:13;23.80;;;17.38;;
54517;SDS011;40423;53.176;6.002;2022-10-31T08:43:39;20.02;;;15.98;;
54517;SDS011;40423;53.176;6.002;2022-10-31T08:46:05;20.25;;;16.52;;
54517;SDS011;40423;53.176;6.002;2022-10-31T08:48:31;24.70;;;18.05;;
54517;SDS011;40423;53.176;6.002;2022-10-31T08:50:57;25.40;;;17.27;;
54517;SDS011;40423;53.176;6.002;2022-10-31T08:53:24;20.67;;;16.35;;
54517;SDS011;40423;53.176;6.002;2022-10-31T08:55:50;25.42;;;16.58;;
54517;SDS011;40423;53.176;6.002;2022-10-31T08:58:19;20.48;;;15.63;;
54517;SDS011;40423;53.176;6.002;2022-10-31T09:00:46;22.23;;;15.23;;
54517;SDS011;40423;53.176;6.002;2022-10-31T09:03:14;22.25;;;16.85;;
54517;SDS011;40423;53.176;6.002;2022-10-31T09:05:42;20.55;;;15.50;;
54517;SDS011;40423;53.176;6.002;2022-10-31T09:08:07;23.75;;;15.18;;
54517;SDS011;40423;53.176;6.002;2022-10-31T09:10:34;24.55;;;16.10;;
54517;SDS011;40423;53.176;6.002;2022-10-31T09:13:05;17.40;;;14.25;;
54517;SDS011;40423;53.176;6.002;2022-10-31T09:15:37;20.33;;;14.65;;
54517;SDS011;40423;53.176;6.002;2022-10-31T09:18:07;18.55;;;13.93;;
54517;SDS011;40423;53.176;6.002;2022-10-31T09:20:34;21.73;;;14.65;;
54517;SDS011;40423;53.176;6.002;2022-10-31T09:23:04;18.48;;;13.90;;
54517;SDS011;40423;53.176;6.002;2022-10-31T09:25:32;17.25;;;13.05;;
54517;SDS011;40423;53.176;6.002;2022-10-31T09:27:59;20.90;;;12.85;;
54517;SDS011;40423;53.176;6.002;2022-10-31T09:30:29;15.10;;;12.68;;
54517;SDS011;40423;53.176;6.002;2022-10-31T09:32:58;14.07;;;11.63;;
54517;SDS011;40423;53.176;6.002;2022-10-31T09:35:25;14.60;;;11.75;;
54517;SDS011;40423;53.176;6.002;2022-10-31T09:38:04;16.77;;;11.82;;
54517;SDS011;40423;53.176;6.002;2022-10-31T09:51:01;15.75;;;10.88;;
54517;SDS011;40423;53.176;6.002;2022-10-31T09:53:35;15.35;;;10.65;;
54517;SDS011;40423;53.176;6.002;2022-10-31T09:56:04;16.27;;;11.52;;
54517;SDS011;40423;53.176;6.002;2022-10-31T09:58:39;14.27;;;11.63;;
54517;SDS011;40423;53.176;6.002;2022-10-31T10:01:15;16.98;;;10.25;;
54517;SDS011;40423;53.176;6.002;2022-10-31T10:03:49;16.23;;;10.55;;
54517;SDS011;40423;53.176;6.002;2022-10-31T10:06:27;15.98;;;10.88;;
54517;SDS011;40423;53.176;6.002;2022-10-31T10:08:55;17.08;;;10.82;;
54517;SDS011;40423;53.176;6.002;2022-10-31T10:30:48;19.40;;;12.45;;
54517;SDS011;40423;53.176;6.002;2022-10-31T10:33:19;18.50;;;12.25;;
54517;SDS011;40423;53.176;6.002;2022-10-31T10:35:53;11.27;;;9.13;;
54517;SDS011;40423;53.176;6.002;2022-10-31T10:40:55;15.30;;;8.18;;
54517;SDS011;40423;53.176;6.002;2022-10-31T10:45:56;11.30;;;8.93;;
54517;SDS011;40423;53.176;6.002;2022-10-31T10:48:49;12.48;;;8.90;;
54517;SDS011;40423;53.176;6.002;2022-10-31T10:51:35;14.30;;;9.82;;
54517;SDS011;40423;53.176;6.002;2022-10-31T10:59:16;13.45;;;9.60;;
54517;SDS011;40423;53.176;6.002;2022-10-31T11:01:45;13.77;;;9.85;;
54517;SDS011;40423;53.176;6.002;2022-10-31T11:04:34;13.85;;;9.43;;
54517;SDS011;40423;53.176;6.002;2022-10-31T11:07:01;15.90;;;10.05;;
54517;SDS011;40423;53.176;6.002;2022-10-31T11:09:32;18.83;;;10.10;;
54517;SDS011;40423;53.176;6.002;2022-10-31T11:11:59;16.35;;;9.60;;
54517;SDS011;40423;53.176;6.002;2022-10-31T11:14:30;14.30;;;8.52;;
54517;SDS011;40423;53.176;6.002;2022-10-31T11:17:07;12.85;;;8.48;;
54517;SDS011;40423;53.176;6.002;2022-10-31T11:19:40;11.20;;;7.80;;
54517;SDS011;40423;53.176;6.002;2022-10-31T11:22:14;13.30;;;8.85;;
54517;SDS011;40423;53.176;6.002;2022-10-31T11:24:41;14.05;;;9.00;;
54517;SDS011;40423;53.176;6.002;2022-10-31T11:27:13;14.23;;;8.50;;
54517;SDS011;40423;53.176;6.002;2022-10-31T11:29:39;12.93;;;9.50;;
54517;SDS011;40423;53.176;6.002;2022-10-31T11:32:04;17.17;;;9.73;;
54517;SDS011;40423;53.176;6.002;2022-10-31T11:34:31;13.57;;;9.48;;
54517;SDS011;40423;53.176;6.002;2022-10-31T11:37:03;13.90;;;8.45;;
54517;SDS011;40423;53.176;6.002;2022-10-31T11:39:47;11.15;;;7.60;;
54517;SDS011;40423;53.176;6.002;2022-10-31T11:42:43;14.07;;;7.72;;
54517;SDS011;40423;53.176;6.002;2022-10-31T11:47:54;9.55;;;7.93;;
54517;SDS011;40423;53.176;6.002;2022-10-31T11:50:23;12.57;;;7.88;;
54517;SDS011;40423;53.176;6.002;2022-10-31T11:52:52;13.93;;;8.68;;
54517;SDS011;40423;53.176;6.002;2022-10-31T11:55:35;11.23;;;8.82;;
54517;SDS011;40423;53.176;6.002;2022-10-31T11:58:02;12.07;;;9.32;;
54517;SDS011;40423;53.176;6.002;2022-10-31T12:00:29;15.65;;;9.65;;
54517;SDS011;40423;53.176;6.002;2022-10-31T12:03:10;13.10;;;9.32;;
54517;SDS011;40423;53.176;6.002;2022-10-31T12:05:45;12.10;;;9.50;;
54517;SDS011;40423;53.176;6.002;2022-10-31T12:08:19;14.15;;;9.98;;
54517;SDS011;40423;53.176;6.002;2022-10-31T12:13:28;14.43;;;9.77;;
54517;SDS011;40423;53.176;6.002;2022-10-31T12:16:06;16.33;;;10.13;;
54517;SDS011;40423;53.176;6.002;2022-10-31T12:24:06;16.52;;;10.68;;
54517;SDS011;40423;53.176;6.002;2022-10-31T12:26:48;15.18;;;11.15;;
54517;SDS011;40423;53.176;6.002;2022-10-31T12:32:36;15.50;;;10.73;;
54517;SDS011;40423;53.176;6.002;2022-10-31T12:35:44;15.52;;;9.93;;
54517;SDS011;40423;53.176;6.002;2022-10-31T12:41:20;18.27;;;9.50;;
54517;SDS011;40423;53.176;6.002;2022-10-31T12:44:06;14.68;;;8.35;;
54517;SDS011;40423;53.176;6.002;2022-10-31T12:52:43;11.57;;;7.32;;
54517;SDS011;40423;53.176;6.002;2022-10-31T12:55:40;9.23;;;6.30;;
54517;SDS011;40423;53.176;6.002;2022-10-31T13:01:12;11.55;;;7.25;;
54517;SDS011;40423;53.176;6.002;2022-10-31T13:06:21;11.63;;;7.45;;
54517;SDS011;40423;53.176;6.002;2022-10-31T13:08:53;12.98;;;7.15;;
54517;SDS011;40423;53.176;6.002;2022-10-31T13:16:41;11.95;;;7.90;;
54517;SDS011;40423;53.176;6.002;2022-10-31T13:19:16;12.98;;;6.95;;
54517;SDS011;40423;53.176;6.002;2022-10-31T13:21:54;15.85;;;6.88;;
54517;SDS011;40423;53.176;6.002;2022-10-31T13:27:23;13.38;;;6.63;;
54517;SDS011;40423;53.176;6.002;2022-10-31T13:32:26;15.60;;;6.13;;
54517;SDS011;40423;53.176;6.002;2022-10-31T13:35:01;11.73;;;6.28;;
54517;SDS011;40423;53.176;6.002;2022-10-31T13:37:48;10.55;;;5.70;;
54517;SDS011;40423;53.176;6.002;2022-10-31T13:45:55;10.57;;;6.50;;
54517;SDS011;40423;53.176;6.002;2022-10-31T13:50:56;13.95;;;6.38;;
54517;SDS011;40423;53.176;6.002;2022-10-31T13:56:03;13.05;;;7.18;;
54517;SDS011;40423;53.176;6.002;2022-10-31T13:58:33;12.10;;;5.55;;
54517;SDS011;40423;53.176;6.002;2022-10-31T14:01:16;11.93;;;6.28;;
54517;SDS011;40423;53.176;6.002;2022-10-31T14:03:47;10.52;;;6.28;;
54517;SDS011;40423;53.176;6.002;2022-10-31T14:09:21;9.75;;;5.45;;
54517;SDS011;40423;53.176;6.002;2022-10-31T14:11:50;12.52;;;5.82;;
54517;SDS011;40423;53.176;6.002;2022-10-31T14:14:17;10.52;;;5.53;;
54517;SDS011;40423;53.176;6.002;2022-10-31T14:16:45;12.57;;;5.55;;
54517;SDS011;40423;53.176;6.002;2022-10-31T14:19:17;9.10;;;4.57;;
54517;SDS011;40423;53.176;6.002;2022-10-31T14:21:47;9.02;;;4.65;;
54517;SDS011;40423;53.176;6.002;2022-10-31T14:24:15;10.45;;;4.97;;
54517;SDS011;40423;53.176;6.002;2022-10-31T14:29:49;9.48;;;4.40;;
54517;SDS011;40423;53.176;6.002;2022-10-31T14:34:55;14.20;;;4.63;;
54517;SDS011;40423;53.176;6.002;2022-10-31T14:37:32;7.35;;;4.35;;
54517;SDS011;40423;53.176;6.002;2022-10-31T14:53:02;9.60;;;4.70;;
54517;SDS011;40423;53.176;6.002;2022-10-31T14:55:32;13.00;;;4.90;;
54517;SDS011;40423;53.176;6.002;2022-10-31T14:58:02;10.38;;;5.05;;
54517;SDS011;40423;53.176;6.002;2022-10-31T15:00:32;10.13;;;5.10;;
54517;SDS011;40423;53.176;6.002;2022-10-31T15:08:27;9.07;;;4.32;;
54517;SDS011;40423;53.176;6.002;2022-10-31T15:11:16;8.43;;;4.25;;
54517;SDS011;40423;53.176;6.002;2022-10-31T15:13:51;12.93;;;4.45;;
54517;SDS011;40423;53.176;6.002;2022-10-31T15:16:34;11.85;;;3.55;;
54517;SDS011;40423;53.176;6.002;2022-10-31T15:19:05;11.27;;;3.38;;
54517;SDS011;40423;53.176;6.002;2022-10-31T15:21:42;11.00;;;3.72;;
54517;SDS011;40423;53.176;6.002;2022-10-31T15:24:13;13.07;;;3.53;;
54517;SDS011;40423;53.176;6.002;2022-10-31T15:26:43;11.00;;;3.78;;
54517;SDS011;40423;53.176;6.002;2022-10-31T15:29:15;7.43;;;3.17;;
54517;SDS011;40423;53.176;6.002;2022-10-31T15:34:33;9.43;;;3.30;;
54517;SDS011;40423;53.176;6.002;2022-10-31T15:37:09;6.80;;;2.83;;
54517;SDS011;40423;53.176;6.002;2022-10-31T15:39:40;9.27;;;2.42;;
54517;SDS011;40423;53.176;6.002;2022-10-31T15:42:23;8.40;;;3.22;;
54517;SDS011;40423;53.176;6.002;2022-10-31T15:47:38;5.82;;;2.90;;
54517;SDS011;40423;53.176;6.002;2022-10-31T15:50:31;9.23;;;3.28;;
54517;SDS011;40423;53.176;6.002;2022-10-31T15:52:59;10.15;;;3.20;;
54517;SDS011;40423;53.176;6.002;2022-10-31T15:55:27;11.77;;;3.25;;
54517;SDS011;40423;53.176;6.002;2022-10-31T15:57:56;9.82;;;3.45;;
54517;SDS011;40423;53.176;6.002;2022-10-31T16:00:28;10.40;;;3.70;;
54517;SDS011;40423;53.176;6.002;2022-10-31T16:03:03;9.13;;;3.95;;
54517;SDS011;40423;53.176;6.002;2022-10-31T16:05:45;11.43;;;4.10;;
54517;SDS011;40423;53.176;6.002;2022-10-31T16:13:42;17.00;;;5.30;;
54517;SDS011;40423;53.176;6.002;2022-10-31T16:16:22;17.20;;;6.85;;
54517;SDS011;40423;53.176;6.002;2022-10-31T16:18:49;15.50;;;6.30;;
54517;SDS011;40423;53.176;6.002;2022-10-31T16:21:28;10.80;;;6.78;;
54517;SDS011;40423;53.176;6.002;2022-10-31T16:24:04;13.07;;;7.18;;
54517;SDS011;40423;53.176;6.002;2022-10-31T16:27:07;15.32;;;7.13;;
54517;SDS011;40423;53.176;6.002;2022-10-31T16:29:43;13.82;;;7.32;;
54517;SDS011;40423;53.176;6.002;2022-10-31T16:32:24;10.75;;;6.72;;
54517;SDS011;40423;53.176;6.002;2022-10-31T16:37:26;10.38;;;6.68;;
54517;SDS011;40423;53.176;6.002;2022-10-31T16:39:51;14.50;;;7.40;;
54517;SDS011;40423;53.176;6.002;2022-10-31T16:42:17;18.60;;;7.80;;
54517;SDS011;40423;53.176;6.002;2022-10-31T16:44:43;18.15;;;7.82;;
54517;SDS011;40423;53.176;6.002;2022-10-31T16:47:15;11.60;;;6.28;;
54517;SDS011;40423;53.176;6.002;2022-10-31T16:49:42;12.48;;;7.03;;
54517;SDS011;40423;53.176;6.002;2022-10-31T16:52:09;12.57;;;7.00;;
54517;SDS011;40423;53.176;6.002;2022-10-31T16:54:35;14.85;;;7.13;;
54517;SDS011;40423;53.176;6.002;2022-10-31T16:57:01;12.80;;;7.22;;
54517;SDS011;40423;53.176;6.002;2022-10-31T16:59:28;15.82;;;7.72;;
54517;SDS011;40423;53.176;6.002;2022-10-31T17:01:55;15.13;;;7.75;;
54517;SDS011;40423;53.176;6.002;2022-10-31T17:04:21;10.88;;;6.97;;
54517;SDS011;40423;53.176;6.002;2022-10-31T17:06:47;14.25;;;7.13;;
54517;SDS011;40423;53.176;6.002;2022-10-31T17:09:13;14.77;;;8.45;;
54517;SDS011;40423;53.176;6.002;2022-10-31T17:11:39;14.35;;;7.78;;
54517;SDS011;40423;53.176;6.002;2022-10-31T17:14:10;15.60;;;7.35;;
54517;SDS011;40423;53.176;6.002;2022-10-31T17:16:36;14.52;;;8.02;;
54517;SDS011;40423;53.176;6.002;2022-10-31T17:19:02;15.73;;;8.65;;
54517;SDS011;40423;53.176;6.002;2022-10-31T17:21:28;12.80;;;7.93;;
54517;SDS011;40423;53.176;6.002;2022-10-31T17:23:54;18.67;;;8.90;;
54517;SDS011;40423;53.176;6.002;2022-10-31T17:26:20;16.65;;;9.27;;
54517;SDS011;40423;53.176;6.002;2022-10-31T17:28:47;12.88;;;8.57;;
54517;SDS011;40423;53.176;6.002;2022-10-31T17:31:23;13.45;;;8.60;;
54517;SDS011;40423;53.176;6.002;2022-10-31T17:33:56;15.23;;;8.57;;
54517;SDS011;40423;53.176;6.002;2022-10-31T17:36:23;15.98;;;9.65;;
54517;SDS011;40423;53.176;6.002;2022-10-31T17:38:49;15.73;;;10.23;;